Un Akdeniz — TCTD2 — position and weather

sailwx.info

Track history (hours):
 
Tides and Currents Weather Stations Pressure Air Temp Water Temp Dewpoint Dewpoint Depression Visibility Wind Speed Wind Dir Waves Ship Positions

Un Akdeniz

Last reported at 2017-Jan-19 18:04 UTC. Time now 2017-Jan-20 20:11 UTC.
Position N 37°31' E 024°05'.

Length 192 m; draft 6.8 m.

Type: Ship (hazmat cat A). MMSI: 271002572.

Date/timePositionNaut miles runAvg speedWind from/ knotsBaromVisibWave heightAir tempDewpointWater temp
2017-Jan-19 18:04N 37°31' E 024°05'1520.5
2017-Jan-19 17:19N 37°43' E 024°16'  
2017-Jan-15 03:16N 44°03' E 014°07'1318.7
2017-Jan-15 02:33N 44°14' E 013°56'1918.7
2017-Jan-15 01:33N 44°29' E 013°42'1918.8
2017-Jan-15 00:33N 44°45' E 013°28'1918.7
2017-Jan-14 23:33N 45°01' E 013°13'1818.5
2017-Jan-14 22:34N 45°18' E 013°03'1817.5
2017-Jan-14 21:33N 45°32' E 013°18'1818.0
2017-Jan-14 20:33N 45°39' E 013°41'3 2.6
2017-Jan-14 19:33N 45°39' E 013°45'0 0.0
2017-Jan-14 18:33N 45°39' E 013°45'0 0.0
2017-Jan-14 17:33N 45°39' E 013°45'0 0.0
2017-Jan-14 16:33N 45°39' E 013°45'0 0.0
2017-Jan-14 15:33N 45°39' E 013°45'0 0.0
2017-Jan-14 14:33N 45°39' E 013°45'0 0.0
2017-Jan-14 13:33N 45°39' E 013°45'0 0.0
2017-Jan-14 12:33N 45°39' E 013°45'0 0.0
2017-Jan-14 11:33N 45°39' E 013°45'0 0.1
2017-Jan-14 10:33N 45°39' E 013°45'1312.6
2017-Jan-14 09:33N 45°33' E 013°29'1817.5
2017-Jan-14 08:33N 45°19' E 013°15'1919.6
2017-Jan-14 07:34N 45°00' E 013°23'2019.7
2017-Jan-14 06:33N 44°43' E 013°37'2019.6
2017-Jan-14 05:33N 44°26' E 013°52'1919.1
2017-Jan-14 04:33N 44°12' E 014°09'60115.8
2017-Jan-12 14:26N 37°43' E 024°17'11819.5
2017-Jan-12 08:23N 39°25' E 025°33'  
Track history (hours):
 
Tides and Currents Weather Stations Pressure Air Temp Water Temp Dewpoint Dewpoint Depression Visibility Wind Speed Wind Dir Waves Ship Positions

Un Akdeniz

Last reported at 2017-Jan-19 18:04 UTC. Time now 2017-Jan-20 20:11 UTC.
Position N 37°31' E 024°05'.

Length 192 m; draft 6.8 m.

Type: Ship (hazmat cat A). MMSI: 271002572.

Date/timePositionNaut miles runAvg speedWind from/ knotsBaromVisibWave heightAir tempDewpointWater temp
2017-Jan-19 18:04N 37°31' E 024°05'1520.5
2017-Jan-19 17:19N 37°43' E 024°16'  
2017-Jan-15 03:16N 44°03' E 014°07'1318.7
2017-Jan-15 02:33N 44°14' E 013°56'1918.7
2017-Jan-15 01:33N 44°29' E 013°42'1918.8
2017-Jan-15 00:33N 44°45' E 013°28'1918.7
2017-Jan-14 23:33N 45°01' E 013°13'1818.5
2017-Jan-14 22:34N 45°18' E 013°03'1817.5
2017-Jan-14 21:33N 45°32' E 013°18'1818.0
2017-Jan-14 20:33N 45°39' E 013°41'3 2.6
2017-Jan-14 19:33N 45°39' E 013°45'0 0.0
2017-Jan-14 18:33N 45°39' E 013°45'0 0.0
2017-Jan-14 17:33N 45°39' E 013°45'0 0.0
2017-Jan-14 16:33N 45°39' E 013°45'0 0.0
2017-Jan-14 15:33N 45°39' E 013°45'0 0.0
2017-Jan-14 14:33N 45°39' E 013°45'0 0.0
2017-Jan-14 13:33N 45°39' E 013°45'0 0.0
2017-Jan-14 12:33N 45°39' E 013°45'0 0.0
2017-Jan-14 11:33N 45°39' E 013°45'0 0.1
2017-Jan-14 10:33N 45°39' E 013°45'1312.6
2017-Jan-14 09:33N 45°33' E 013°29'1817.5
2017-Jan-14 08:33N 45°19' E 013°15'1919.6
2017-Jan-14 07:34N 45°00' E 013°23'2019.7
2017-Jan-14 06:33N 44°43' E 013°37'2019.6
2017-Jan-14 05:33N 44°26' E 013°52'1919.1
2017-Jan-14 04:33N 44°12' E 014°09'60115.8
2017-Jan-12 14:26N 37°43' E 024°17'11819.5
2017-Jan-12 08:23N 39°25' E 025°33'  

Dump ship's entire track history